createdAt,value
2023-04-19T00:02:03.512Z,2.03
2023-04-19T00:04:31.240Z,1.20
2023-04-19T00:06:58.516Z,1.20
2023-04-19T00:09:25.570Z,1.80
2023-04-19T00:11:53.102Z,1.40
2023-04-19T00:14:20.226Z,1.50
2023-04-19T00:16:47.145Z,1.30
2023-04-19T00:19:14.102Z,1.00
2023-04-19T00:21:41.344Z,1.80
2023-04-19T00:24:08.348Z,1.10
2023-04-19T00:26:35.349Z,2.30
2023-04-19T00:29:02.375Z,1.63
2023-04-19T00:31:29.423Z,1.83
2023-04-19T00:33:57.101Z,1.83
2023-04-19T00:36:23.979Z,2.10
2023-04-19T00:38:50.790Z,1.30
2023-04-19T00:41:17.732Z,1.53
2023-04-19T00:43:44.601Z,1.50
2023-04-19T00:46:11.987Z,1.43
2023-04-19T00:48:38.956Z,1.50
2023-04-19T00:51:06.127Z,1.00
2023-04-19T00:53:33.598Z,1.40
2023-04-19T00:56:04.479Z,1.47
2023-04-19T00:58:32.065Z,2.00
2023-04-19T01:00:59.884Z,1.57
2023-04-19T01:03:30.233Z,1.50
2023-04-19T01:05:57.494Z,1.60
2023-04-19T01:08:24.690Z,1.77
2023-04-19T01:10:51.557Z,1.27
2023-04-19T01:13:18.522Z,1.60
2023-04-19T01:15:45.492Z,1.47
2023-04-19T01:18:13.867Z,2.23
2023-04-19T01:20:40.890Z,1.70
2023-04-19T01:23:11.479Z,2.37
2023-04-19T01:25:39.037Z,1.87
2023-04-19T01:28:06.466Z,1.90
2023-04-19T01:30:34.174Z,1.97
2023-04-19T01:33:01.162Z,2.40
2023-04-19T01:35:28.048Z,1.87
2023-04-19T01:37:56.317Z,1.60
2023-04-19T01:40:24.912Z,1.63
2023-04-19T01:42:52.429Z,1.80
2023-04-19T01:45:20.041Z,1.53
2023-04-19T01:47:47.041Z,1.67
2023-04-19T01:50:14.012Z,2.30
2023-04-19T01:52:40.863Z,1.77
2023-04-19T01:55:08.155Z,1.37
2023-04-19T01:57:35.112Z,1.50
2023-04-19T02:00:02.594Z,1.43
2023-04-19T02:02:29.725Z,1.33
2023-04-19T02:04:57.839Z,1.40
2023-04-19T02:07:24.730Z,1.27
2023-04-19T02:09:51.674Z,1.67
2023-04-19T02:12:18.658Z,1.47
2023-04-19T02:14:45.707Z,1.57
2023-04-19T02:17:12.664Z,1.53
2023-04-19T02:19:39.541Z,1.20
2023-04-19T02:22:06.487Z,1.83
2023-04-19T02:24:33.372Z,1.27
2023-04-19T02:27:01.884Z,1.67
2023-04-19T02:29:28.852Z,1.57
2023-04-19T02:31:55.849Z,1.17
2023-04-19T02:34:22.687Z,2.30
2023-04-19T02:36:49.539Z,1.63
2023-04-19T02:39:17.295Z,1.37
2023-04-19T02:41:44.241Z,1.80
2023-04-19T02:44:11.194Z,2.23
2023-04-19T02:46:38.098Z,1.20
2023-04-19T02:49:05.080Z,1.67
2023-04-19T02:51:31.960Z,1.50
2023-04-19T02:53:58.883Z,1.90
2023-04-19T02:56:26.060Z,1.20
2023-04-19T02:58:54.666Z,1.10
2023-04-19T03:01:21.502Z,1.43
2023-04-19T03:03:48.423Z,1.57
2023-04-19T03:06:16.799Z,1.50
2023-04-19T03:08:43.755Z,1.47
2023-04-19T03:11:11.966Z,1.00
2023-04-19T03:13:40.653Z,1.10
2023-04-19T03:16:08.155Z,1.03
2023-04-19T03:18:35.382Z,1.00
2023-04-19T03:21:02.972Z,1.10
2023-04-19T03:23:30.156Z,1.17
2023-04-19T03:25:57.252Z,1.23
2023-04-19T03:28:24.136Z,1.00
2023-04-19T03:30:51.010Z,0.90
2023-04-19T03:33:17.906Z,0.90
2023-04-19T03:35:45.645Z,0.90
2023-04-19T03:38:12.579Z,1.03
2023-04-19T03:40:39.450Z,1.23
2023-04-19T03:43:06.338Z,1.33
2023-04-19T03:45:33.158Z,1.80
2023-04-19T03:48:02.550Z,1.20
2023-04-19T03:50:29.973Z,0.93
2023-04-19T03:52:56.781Z,1.20
2023-04-19T03:55:23.670Z,1.00
2023-04-19T03:57:50.639Z,0.90
2023-04-19T04:00:17.782Z,0.90
2023-04-19T04:02:45.016Z,1.10
2023-04-19T04:05:12.432Z,1.20
2023-04-19T04:07:39.468Z,1.60
2023-04-19T04:10:07.086Z,0.90
2023-04-19T04:12:33.989Z,1.30
2023-04-19T04:15:01.021Z,1.30
2023-04-19T04:17:28.035Z,1.40
2023-04-19T04:19:55.085Z,1.10
2023-04-19T04:22:22.193Z,1.63
2023-04-19T04:24:49.170Z,1.57
2023-04-19T04:27:20.136Z,1.40
2023-04-19T04:29:47.334Z,1.70
2023-04-19T04:32:14.563Z,2.13
2023-04-19T04:34:42.772Z,1.43
2023-04-19T04:37:09.931Z,1.60
2023-04-19T04:39:39.364Z,1.80
2023-04-19T04:42:08.764Z,1.93
2023-04-19T04:44:42.130Z,1.87
2023-04-19T04:47:09.027Z,2.40
2023-04-19T04:49:36.339Z,2.00
2023-04-19T04:52:03.435Z,2.30
2023-04-19T04:54:30.453Z,1.77
2023-04-19T04:56:59.379Z,1.70
2023-04-19T04:59:26.707Z,1.70
2023-04-19T05:01:53.617Z,1.10
2023-04-19T05:04:20.777Z,1.47
2023-04-19T05:06:47.653Z,2.07
2023-04-19T05:09:14.465Z,2.20
2023-04-19T05:11:41.357Z,1.80
2023-04-19T05:14:08.292Z,1.43
2023-04-19T05:16:35.235Z,1.27
2023-04-19T05:19:05.972Z,2.23
2023-04-19T05:21:34.414Z,1.90
2023-04-19T05:24:01.264Z,2.73
2023-04-19T05:26:28.260Z,2.30
2023-04-19T05:28:56.161Z,2.90
2023-04-19T05:31:23.159Z,2.57
2023-04-19T05:33:50.217Z,2.00
2023-04-19T05:36:17.106Z,3.63
2023-04-19T05:38:44.092Z,2.37
2023-04-19T05:41:11.682Z,2.57
2023-04-19T05:43:38.559Z,2.80
2023-04-19T05:46:05.593Z,2.70
2023-04-19T05:48:32.569Z,3.23
2023-04-19T05:51:04.948Z,3.53
2023-04-19T05:53:31.873Z,2.27
2023-04-19T05:55:59.043Z,2.40
2023-04-19T05:58:26.176Z,2.13
2023-04-19T06:00:53.326Z,2.53
2023-04-19T06:03:20.551Z,2.43
2023-04-19T06:05:47.749Z,2.70
2023-04-19T06:08:16.440Z,2.80
2023-04-19T06:10:53.737Z,3.33
2023-04-19T06:13:23.188Z,2.43
2023-04-19T06:15:50.547Z,2.30
2023-04-19T06:18:18.936Z,2.50
2023-04-19T06:20:47.339Z,2.17
2023-04-19T06:23:15.366Z,2.20
2023-04-19T06:25:42.715Z,2.90
2023-04-19T06:28:09.683Z,3.03
2023-04-19T06:30:37.035Z,3.50
2023-04-19T06:33:04.154Z,3.63
2023-04-19T06:35:31.965Z,3.07
2023-04-19T06:38:02.154Z,3.30
2023-04-19T06:40:32.040Z,2.97
2023-04-19T06:42:58.928Z,2.10
2023-04-19T06:45:26.206Z,2.00
2023-04-19T06:47:53.310Z,2.50
2023-04-19T06:50:20.347Z,2.70
2023-04-19T06:52:47.342Z,1.70
2023-04-19T06:55:14.291Z,1.90
2023-04-19T06:57:42.673Z,3.87
2023-04-19T07:00:11.213Z,3.00
2023-04-19T07:02:38.215Z,2.50
2023-04-19T07:05:06.069Z,2.00
2023-04-19T07:07:33.451Z,2.40
2023-04-19T07:10:00.411Z,2.43
2023-04-19T07:12:27.823Z,2.50
2023-04-19T07:14:57.282Z,2.60
2023-04-19T07:17:24.513Z,11.00
2023-04-19T07:19:51.689Z,8.73
2023-04-19T07:22:18.630Z,14.93
2023-04-19T07:24:45.697Z,4.30
2023-04-19T07:27:14.316Z,9.70
2023-04-19T07:29:41.371Z,6.40
2023-04-19T07:32:08.695Z,7.30
2023-04-19T07:34:37.897Z,8.20
2023-04-19T07:37:04.857Z,3.93
2023-04-19T07:39:31.944Z,2.47
2023-04-19T07:41:59.080Z,2.30
2023-04-19T07:44:25.988Z,2.20
2023-04-19T07:46:53.152Z,2.07
2023-04-19T07:49:20.058Z,2.43
2023-04-19T07:51:47.367Z,1.33
2023-04-19T07:54:16.403Z,1.90
2023-04-19T07:56:43.654Z,3.47
2023-04-19T07:59:10.871Z,1.03
2023-04-19T08:01:38.116Z,2.67
2023-04-19T08:04:05.651Z,1.70
2023-04-19T08:06:33.162Z,1.63
2023-04-19T08:09:00.119Z,1.77
2023-04-19T08:11:27.334Z,1.57
2023-04-19T08:14:08.823Z,1.43
2023-04-19T08:17:06.472Z,1.20
2023-04-19T08:19:26.094Z,3.00
2023-04-19T08:21:53.214Z,1.53
2023-04-19T08:24:20.862Z,3.97
2023-04-19T08:26:53.818Z,0.87
2023-04-19T08:29:22.459Z,1.47
2023-04-19T08:31:50.417Z,1.43
2023-04-19T08:34:17.952Z,6.47
2023-04-19T08:37:00.006Z,7.83
2023-04-19T08:39:36.342Z,3.10
2023-04-19T08:42:18.131Z,3.90
2023-04-19T08:45:22.753Z,4.40
2023-04-19T08:47:59.889Z,4.07
2023-04-19T08:50:34.422Z,4.70
2023-04-19T08:56:03.441Z,2.17
2023-04-19T09:01:12.790Z,2.00
2023-04-19T09:04:00.570Z,1.40
2023-04-19T09:06:38.256Z,1.40
2023-04-19T09:12:39.215Z,1.53
2023-04-19T09:15:10.519Z,1.37
2023-04-19T09:17:39.304Z,1.17
2023-04-19T09:20:07.462Z,1.40
2023-04-19T09:22:37.680Z,1.70
2023-04-19T09:27:36.578Z,1.30
2023-04-19T09:30:05.545Z,0.93
2023-04-19T09:32:53.079Z,1.40
2023-04-19T09:35:20.154Z,1.63
2023-04-19T09:38:06.613Z,1.20
2023-04-19T09:40:34.466Z,1.10
2023-04-19T09:43:45.197Z,1.03
2023-04-19T09:45:57.978Z,1.20
2023-04-19T09:48:25.135Z,1.00
2023-04-19T09:51:05.487Z,3.27
2023-04-19T09:53:39.001Z,0.97
2023-04-19T09:56:07.399Z,1.17
2023-04-19T09:58:46.889Z,0.80
2023-04-19T10:01:24.386Z,1.97
2023-04-19T10:03:53.448Z,1.00
2023-04-19T10:08:54.952Z,0.97
2023-04-19T10:11:23.092Z,1.40
2023-04-19T10:14:00.721Z,1.10
2023-04-19T10:16:30.189Z,2.83
2023-04-19T10:18:58.362Z,1.10
2023-04-19T10:21:30.160Z,1.60
2023-04-19T10:23:59.160Z,1.43
2023-04-19T10:26:29.073Z,0.90
2023-04-19T10:29:04.153Z,0.80
2023-04-19T10:31:32.971Z,1.17
2023-04-19T10:34:00.466Z,1.00
2023-04-19T10:36:29.019Z,1.20
2023-04-19T10:39:00.943Z,5.13
2023-04-19T10:42:06.082Z,3.03
2023-04-19T10:44:33.200Z,2.00
2023-04-19T10:47:00.966Z,2.37
2023-04-19T10:49:32.113Z,1.23
2023-04-19T10:52:02.524Z,1.30
2023-04-19T10:54:38.986Z,1.40
2023-04-19T10:57:11.646Z,1.23
2023-04-19T10:59:44.546Z,1.50
2023-04-19T11:02:25.454Z,1.17
2023-04-19T11:05:01.028Z,1.20
2023-04-19T11:07:29.147Z,1.30
2023-04-19T11:09:56.715Z,1.37
2023-04-19T11:12:24.481Z,1.77
2023-04-19T11:15:26.765Z,2.40
2023-04-19T11:18:13.979Z,2.23
2023-04-19T11:20:45.017Z,1.50
2023-04-19T11:27:04.411Z,2.50
2023-04-19T11:29:33.061Z,1.40
2023-04-19T11:32:01.993Z,1.50
2023-04-19T11:34:32.905Z,3.80
2023-04-19T11:37:18.706Z,1.77
2023-04-19T11:40:15.454Z,1.90
2023-04-19T11:46:11.139Z,2.77
2023-04-19T11:48:46.462Z,2.07
2023-04-19T11:51:55.939Z,2.10
2023-04-19T11:55:47.358Z,2.50
2023-04-19T11:58:48.151Z,2.57
2023-04-19T12:13:01.702Z,3.50
2023-04-19T12:15:45.061Z,3.13
2023-04-19T12:18:12.722Z,4.00
2023-04-19T12:20:45.467Z,3.77
2023-04-19T12:23:14.053Z,3.60
2023-04-19T12:25:41.694Z,3.80
2023-04-19T12:28:08.740Z,2.60
2023-04-19T12:30:36.813Z,3.17
2023-04-19T12:33:04.237Z,2.83
2023-04-19T12:35:31.291Z,2.97
2023-04-19T12:37:59.063Z,2.80
2023-04-19T12:40:26.854Z,2.03
2023-04-19T12:42:54.050Z,2.80
2023-04-19T12:45:21.225Z,2.70
2023-04-19T12:47:48.960Z,3.10
2023-04-19T12:50:16.618Z,3.43
2023-04-19T12:52:46.283Z,5.70
2023-04-19T12:55:13.321Z,3.60
2023-04-19T12:57:40.260Z,3.90
2023-04-19T13:00:08.834Z,2.50
2023-04-19T13:02:35.777Z,3.60
2023-04-19T13:05:05.077Z,2.20
2023-04-19T13:07:32.137Z,2.40
2023-04-19T13:09:59.218Z,3.13
2023-04-19T13:12:26.081Z,1.90
2023-04-19T13:14:53.144Z,1.80
2023-04-19T13:17:20.394Z,2.77
2023-04-19T13:19:47.841Z,2.00
2023-04-19T13:22:15.649Z,1.70
2023-04-19T13:24:42.586Z,1.80
2023-04-19T13:27:09.747Z,2.23
2023-04-19T13:29:36.985Z,3.43
2023-04-19T13:32:07.346Z,1.70
2023-04-19T13:34:34.974Z,1.60
2023-04-19T13:37:01.831Z,1.73
2023-04-19T13:39:28.812Z,2.33
2023-04-19T13:41:55.851Z,2.30
2023-04-19T13:44:23.017Z,1.97
2023-04-19T13:46:49.921Z,1.80
2023-04-19T13:49:18.157Z,2.20
2023-04-19T13:51:50.382Z,1.60
2023-04-19T13:54:19.362Z,1.87
2023-04-19T13:56:48.096Z,2.20
2023-04-19T13:59:16.157Z,2.80
2023-04-19T14:01:43.112Z,2.60
2023-04-19T14:04:10.309Z,1.90
2023-04-19T14:06:37.661Z,1.47
2023-04-19T14:09:04.682Z,2.30
2023-04-19T14:11:32.759Z,1.67
2023-04-19T14:13:59.672Z,2.00
2023-04-19T14:16:26.663Z,2.63
2023-04-19T14:18:53.598Z,1.80
2023-04-19T14:21:20.508Z,2.00
2023-04-19T14:23:47.462Z,3.80
2023-04-19T14:26:15.131Z,3.23
2023-04-19T14:28:42.037Z,2.30
2023-04-19T14:31:09.028Z,2.50
2023-04-19T14:33:36.180Z,2.03
2023-04-19T14:36:03.530Z,1.50
2023-04-19T14:38:37.993Z,1.83
2023-04-19T14:41:05.033Z,1.63
2023-04-19T14:43:33.028Z,1.80
2023-04-19T14:46:00.243Z,2.27
2023-04-19T14:48:27.390Z,3.03
2023-04-19T14:50:54.458Z,1.63
2023-04-19T14:53:21.334Z,1.87
2023-04-19T14:55:48.350Z,1.60
2023-04-19T14:58:15.358Z,1.93
2023-04-19T15:00:42.535Z,1.80
2023-04-19T15:03:09.516Z,1.87
2023-04-19T15:05:36.887Z,1.50
2023-04-19T15:08:04.163Z,1.90
2023-04-19T15:10:31.201Z,1.47
2023-04-19T15:12:58.189Z,2.00
2023-04-19T15:15:25.120Z,2.50
2023-04-19T15:17:52.182Z,1.37
2023-04-19T15:20:19.302Z,1.50
2023-04-19T15:22:46.210Z,1.00
2023-04-19T15:25:13.247Z,1.33
2023-04-19T15:27:40.711Z,1.30
2023-04-19T15:30:08.188Z,1.10
2023-04-19T15:32:36.874Z,0.80
2023-04-19T15:35:04.284Z,1.10
2023-04-19T15:37:31.523Z,1.00
2023-04-19T15:39:58.529Z,1.00
2023-04-19T15:42:28.002Z,1.37
2023-04-19T15:44:55.093Z,1.10
2023-04-19T15:47:22.197Z,1.33
2023-04-19T15:49:49.361Z,1.47
2023-04-19T15:52:16.511Z,1.30
2023-04-19T15:54:43.624Z,1.67
2023-04-19T15:57:10.709Z,1.00
2023-04-19T15:59:37.742Z,1.37
2023-04-19T16:02:04.874Z,1.37
2023-04-19T16:04:32.175Z,1.50
2023-04-19T16:06:59.353Z,0.90
2023-04-19T16:09:26.942Z,1.57
2023-04-19T16:11:53.851Z,1.90
2023-04-19T16:14:20.768Z,1.10
2023-04-19T16:16:48.617Z,1.70
2023-04-19T16:19:15.815Z,1.73
2023-04-19T16:21:43.019Z,1.83
2023-04-19T16:24:10.088Z,5.13
2023-04-19T16:26:37.027Z,2.20
2023-04-19T16:29:04.017Z,1.70
2023-04-19T16:31:31.025Z,2.53
2023-04-19T16:33:58.103Z,2.30
2023-04-19T16:36:25.113Z,1.20
2023-04-19T16:38:52.089Z,1.10
2023-04-19T16:41:19.161Z,1.97
2023-04-19T16:43:46.035Z,1.30
2023-04-19T16:46:12.956Z,2.77
2023-04-19T16:48:39.910Z,2.20
2023-04-19T16:51:06.787Z,2.30
2023-04-19T16:53:33.642Z,1.77
2023-04-19T16:56:03.300Z,1.50
2023-04-19T16:58:30.923Z,2.53
2023-04-19T17:00:58.370Z,1.57
2023-04-19T17:03:25.757Z,2.10
2023-04-19T17:05:52.778Z,1.30
2023-04-19T17:08:21.391Z,2.67
2023-04-19T17:10:48.399Z,1.20
2023-04-19T17:13:15.269Z,2.20
2023-04-19T17:15:42.330Z,0.97
2023-04-19T17:18:09.317Z,2.43
2023-04-19T17:20:36.253Z,1.60
2023-04-19T17:23:03.127Z,0.97
2023-04-19T17:25:30.002Z,3.10
2023-04-19T17:27:56.865Z,0.87
2023-04-19T17:30:23.881Z,0.90
2023-04-19T17:32:51.173Z,0.80
2023-04-19T17:35:18.165Z,0.93
2023-04-19T17:37:45.217Z,0.93
2023-04-19T17:40:12.553Z,0.93
2023-04-19T17:42:39.407Z,0.87
2023-04-19T17:45:11.022Z,1.00
2023-04-19T17:47:39.356Z,1.00
2023-04-19T17:50:08.563Z,0.80
2023-04-19T17:52:35.682Z,0.60
2023-04-19T17:55:04.528Z,1.03
2023-04-19T17:57:33.734Z,2.00
2023-04-19T18:00:01.220Z,1.23
2023-04-19T18:02:28.322Z,1.80
2023-04-19T18:04:55.430Z,1.10
2023-04-19T18:07:22.377Z,1.33
2023-04-19T18:09:49.320Z,0.80
2023-04-19T18:12:16.617Z,0.70
2023-04-19T18:14:43.596Z,3.00
2023-04-19T18:17:10.643Z,0.93
2023-04-19T18:19:37.602Z,0.80
2023-04-19T18:22:04.536Z,0.77
2023-04-19T18:24:32.171Z,1.20
2023-04-19T18:26:59.778Z,1.50
2023-04-19T18:29:26.625Z,0.90
2023-04-19T18:31:53.607Z,0.90
2023-04-19T18:34:20.522Z,1.00
2023-04-19T18:36:47.349Z,0.80
2023-04-19T18:39:14.457Z,1.10
2023-04-19T18:41:41.524Z,0.97
2023-04-19T18:44:34.811Z,0.90
2023-04-19T18:46:55.248Z,0.70
2023-04-19T18:49:22.069Z,1.50
2023-04-19T18:51:50.359Z,0.90
2023-04-19T18:54:19.370Z,1.20
2023-04-19T18:59:16.751Z,0.70
2023-04-19T19:01:45.621Z,0.70
2023-04-19T19:04:33.963Z,1.07
2023-04-19T19:07:18.069Z,0.70
2023-04-19T19:09:56.201Z,1.20
2023-04-19T19:12:23.685Z,1.40
2023-04-19T19:14:50.789Z,0.90
2023-04-19T19:17:17.648Z,1.00
2023-04-19T19:19:44.681Z,1.00
2023-04-19T19:22:25.266Z,0.93
2023-04-19T19:24:55.736Z,1.10
2023-04-19T19:27:22.740Z,1.20
2023-04-19T19:29:49.774Z,1.27
2023-04-19T19:32:16.663Z,1.30
2023-04-19T19:34:54.694Z,1.63
2023-04-19T19:37:23.356Z,1.37
2023-04-19T19:39:50.615Z,1.10
2023-04-19T19:42:19.694Z,0.93
2023-04-19T19:44:46.680Z,0.90
2023-04-19T19:47:16.981Z,1.00
2023-04-19T19:50:09.713Z,1.00
2023-04-19T19:52:31.906Z,1.10
2023-04-19T19:54:59.678Z,2.17
2023-04-19T19:59:57.649Z,1.00
2023-04-19T20:02:34.125Z,0.90
2023-04-19T20:05:01.882Z,0.80
2023-04-19T20:07:53.540Z,1.03
2023-04-19T20:10:16.203Z,1.30
2023-04-19T20:12:43.788Z,1.57
2023-04-19T20:15:14.139Z,0.90
2023-04-19T20:17:41.845Z,1.10
2023-04-19T20:20:11.069Z,0.90
2023-04-19T20:22:38.537Z,1.83
2023-04-19T20:25:05.965Z,0.90
2023-04-19T20:27:33.602Z,1.00
2023-04-19T20:30:01.005Z,0.80
2023-04-19T20:32:28.273Z,0.87
2023-04-19T20:34:55.305Z,0.80
2023-04-19T20:37:22.716Z,0.97
2023-04-19T20:39:49.564Z,0.70
2023-04-19T20:42:16.845Z,0.90
2023-04-19T20:44:43.800Z,0.90
2023-04-19T20:47:13.155Z,0.90
2023-04-19T20:49:40.998Z,0.90
2023-04-19T20:52:08.001Z,0.80
2023-04-19T20:54:36.838Z,1.00
2023-04-19T20:57:04.731Z,1.07
2023-04-19T20:59:31.950Z,1.20
2023-04-19T21:01:59.922Z,1.10
2023-04-19T21:04:27.298Z,0.80
2023-04-19T21:06:54.423Z,1.00
2023-04-19T21:09:21.407Z,0.90
2023-04-19T21:11:48.531Z,0.60
2023-04-19T21:14:15.697Z,0.67
2023-04-19T21:16:42.741Z,0.90
2023-04-19T21:19:09.933Z,0.80
2023-04-19T21:21:37.069Z,0.80
2023-04-19T21:24:04.298Z,0.97
2023-04-19T21:26:31.471Z,1.00
2023-04-19T21:28:58.525Z,0.80
2023-04-19T21:31:26.279Z,0.93
2023-04-19T21:33:53.202Z,0.80
2023-04-19T21:36:20.604Z,1.00
2023-04-19T21:38:47.589Z,0.77
2023-04-19T21:41:14.437Z,1.00
2023-04-19T21:43:41.282Z,0.80
2023-04-19T21:46:08.341Z,1.17
2023-04-19T21:48:35.335Z,1.10
2023-04-19T21:51:02.253Z,1.37
2023-04-19T21:53:29.184Z,1.50
2023-04-19T21:55:56.209Z,2.40
2023-04-19T21:58:23.155Z,1.93
2023-04-19T22:00:50.134Z,0.97
2023-04-19T22:03:17.179Z,0.90
2023-04-19T22:05:46.608Z,0.90
2023-04-19T22:08:13.661Z,0.87
2023-04-19T22:10:41.150Z,0.70
2023-04-19T22:13:08.826Z,1.10
2023-04-19T22:15:36.455Z,1.23
2023-04-19T22:18:05.131Z,1.33
2023-04-19T22:20:33.554Z,0.70
2023-04-19T22:23:00.510Z,0.80
2023-04-19T22:25:27.450Z,0.80
2023-04-19T22:27:54.612Z,0.80
2023-04-19T22:30:21.605Z,1.60
2023-04-19T22:32:48.680Z,0.83
2023-04-19T22:35:15.847Z,1.23
2023-04-19T22:37:42.902Z,0.80
2023-04-19T22:40:10.354Z,0.93
2023-04-19T22:42:37.268Z,0.87
2023-04-19T22:45:04.522Z,1.17
2023-04-19T22:47:32.952Z,1.13
2023-04-19T22:50:00.019Z,0.87
2023-04-19T22:52:27.730Z,0.80
2023-04-19T22:54:54.699Z,1.10
2023-04-19T22:57:21.718Z,1.07
2023-04-19T22:59:48.967Z,1.07
2023-04-19T23:02:15.969Z,2.53
2023-04-19T23:04:44.597Z,0.87
2023-04-19T23:07:12.020Z,0.90
2023-04-19T23:09:39.442Z,0.90
2023-04-19T23:12:08.193Z,1.00
2023-04-19T23:14:35.606Z,1.00
2023-04-19T23:17:02.984Z,1.00
2023-04-19T23:19:30.564Z,0.80
2023-04-19T23:21:57.556Z,1.03
2023-04-19T23:24:24.680Z,0.93
2023-04-19T23:26:52.229Z,0.80
2023-04-19T23:29:19.380Z,1.10
2023-04-19T23:31:46.449Z,0.80
2023-04-19T23:34:14.155Z,0.80
2023-04-19T23:36:41.212Z,0.97
2023-04-19T23:39:08.150Z,0.80
2023-04-19T23:41:35.101Z,0.80
2023-04-19T23:44:02.073Z,0.70
2023-04-19T23:46:29.062Z,0.60
2023-04-19T23:48:56.087Z,0.60
2023-04-19T23:51:23.016Z,0.70
2023-04-19T23:53:50.096Z,0.70
2023-04-19T23:56:17.064Z,1.27
2023-04-19T23:58:43.976Z,0.70
